sensor_id;sensor_type;location;lat;lon;timestamp;P1;durP1;ratioP1;P2;durP2;ratioP2
20986;SDS011;10652;50.306;8.570;2023-02-25T00:02:30;7.05;;;2.85;;
20986;SDS011;10652;50.306;8.570;2023-02-25T00:06:32;8.55;;;2.97;;
20986;SDS011;10652;50.306;8.570;2023-02-25T00:10:34;12.57;;;3.00;;
20986;SDS011;10652;50.306;8.570;2023-02-25T00:14:37;6.20;;;2.58;;
20986;SDS011;10652;50.306;8.570;2023-02-25T00:18:39;11.02;;;2.72;;
20986;SDS011;10652;50.306;8.570;2023-02-25T00:22:45;8.98;;;3.28;;
20986;SDS011;10652;50.306;8.570;2023-02-25T00:26:47;9.40;;;2.83;;
20986;SDS011;10652;50.306;8.570;2023-02-25T00:30:49;8.35;;;2.63;;
20986;SDS011;10652;50.306;8.570;2023-02-25T00:34:51;12.32;;;2.95;;
20986;SDS011;10652;50.306;8.570;2023-02-25T00:38:54;11.70;;;2.90;;
20986;SDS011;10652;50.306;8.570;2023-02-25T00:42:58;11.32;;;3.00;;
20986;SDS011;10652;50.306;8.570;2023-02-25T00:47:00;10.07;;;2.95;;
20986;SDS011;10652;50.306;8.570;2023-02-25T00:51:13;9.68;;;3.40;;
20986;SDS011;10652;50.306;8.570;2023-02-25T00:55:17;11.35;;;3.20;;
20986;SDS011;10652;50.306;8.570;2023-02-25T00:59:19;11.50;;;2.90;;
20986;SDS011;10652;50.306;8.570;2023-02-25T01:03:22;12.30;;;3.63;;
20986;SDS011;10652;50.306;8.570;2023-02-25T01:07:24;12.70;;;3.30;;
20986;SDS011;10652;50.306;8.570;2023-02-25T01:11:28;11.15;;;3.40;;
20986;SDS011;10652;50.306;8.570;2023-02-25T01:15:33;10.80;;;3.53;;
20986;SDS011;10652;50.306;8.570;2023-02-25T01:19:35;12.88;;;3.95;;
20986;SDS011;10652;50.306;8.570;2023-02-25T01:23:37;15.70;;;3.50;;
20986;SDS011;10652;50.306;8.570;2023-02-25T01:27:39;10.20;;;3.40;;
20986;SDS011;10652;50.306;8.570;2023-02-25T01:31:41;11.25;;;3.60;;
20986;SDS011;10652;50.306;8.570;2023-02-25T01:35:45;9.70;;;3.88;;
20986;SDS011;10652;50.306;8.570;2023-02-25T01:39:48;11.32;;;3.78;;
20986;SDS011;10652;50.306;8.570;2023-02-25T01:44:05;12.23;;;4.18;;
20986;SDS011;10652;50.306;8.570;2023-02-25T01:48:19;45.72;;;22.35;;
20986;SDS011;10652;50.306;8.570;2023-02-25T01:52:25;18.65;;;6.57;;
20986;SDS011;10652;50.306;8.570;2023-02-25T01:56:28;9.25;;;3.90;;
20986;SDS011;10652;50.306;8.570;2023-02-25T02:00:31;8.85;;;3.80;;
20986;SDS011;10652;50.306;8.570;2023-02-25T02:04:35;12.90;;;4.28;;
20986;SDS011;10652;50.306;8.570;2023-02-25T02:08:38;12.45;;;3.20;;
20986;SDS011;10652;50.306;8.570;2023-02-25T02:12:43;9.10;;;3.10;;
20986;SDS011;10652;50.306;8.570;2023-02-25T02:34:39;9.80;;;3.00;;
20986;SDS011;10652;50.306;8.570;2023-02-25T02:38:54;8.55;;;3.00;;
20986;SDS011;10652;50.306;8.570;2023-02-25T02:43:07;9.07;;;2.80;;
20986;SDS011;10652;50.306;8.570;2023-02-25T02:47:17;12.15;;;3.20;;
20986;SDS011;10652;50.306;8.570;2023-02-25T02:51:25;10.00;;;3.60;;
20986;SDS011;10652;50.306;8.570;2023-02-25T02:55:39;11.68;;;3.58;;
20986;SDS011;10652;50.306;8.570;2023-02-25T02:59:52;12.40;;;3.65;;
20986;SDS011;10652;50.306;8.570;2023-02-25T03:03:59;11.85;;;3.30;;
20986;SDS011;10652;50.306;8.570;2023-02-25T03:08:09;12.60;;;3.10;;
20986;SDS011;10652;50.306;8.570;2023-02-25T03:12:15;14.60;;;3.50;;
20986;SDS011;10652;50.306;8.570;2023-02-25T03:16:22;13.30;;;3.50;;
20986;SDS011;10652;50.306;8.570;2023-02-25T03:20:39;9.82;;;3.35;;
20986;SDS011;10652;50.306;8.570;2023-02-25T03:24:52;13.45;;;3.55;;
20986;SDS011;10652;50.306;8.570;2023-02-25T03:28:56;13.93;;;2.92;;
20986;SDS011;10652;50.306;8.570;2023-02-25T03:33:04;11.20;;;3.58;;
20986;SDS011;10652;50.306;8.570;2023-02-25T03:37:20;11.50;;;3.22;;
20986;SDS011;10652;50.306;8.570;2023-02-25T03:41:30;12.15;;;3.28;;
20986;SDS011;10652;50.306;8.570;2023-02-25T03:45:36;12.27;;;3.40;;
20986;SDS011;10652;50.306;8.570;2023-02-25T03:54:14;11.20;;;3.83;;
20986;SDS011;10652;50.306;8.570;2023-02-25T03:58:19;14.98;;;3.70;;
20986;SDS011;10652;50.306;8.570;2023-02-25T04:02:29;13.68;;;3.60;;
20986;SDS011;10652;50.306;8.570;2023-02-25T04:06:33;14.18;;;3.85;;
20986;SDS011;10652;50.306;8.570;2023-02-25T04:10:35;13.10;;;3.72;;
20986;SDS011;10652;50.306;8.570;2023-02-25T04:14:37;10.38;;;4.25;;
20986;SDS011;10652;50.306;8.570;2023-02-25T04:18:40;12.40;;;3.92;;
20986;SDS011;10652;50.306;8.570;2023-02-25T04:22:42;12.35;;;4.57;;
20986;SDS011;10652;50.306;8.570;2023-02-25T04:26:45;11.50;;;4.40;;
20986;SDS011;10652;50.306;8.570;2023-02-25T04:30:47;14.60;;;4.53;;
20986;SDS011;10652;50.306;8.570;2023-02-25T04:34:49;11.98;;;4.50;;
20986;SDS011;10652;50.306;8.570;2023-02-25T04:38:52;13.43;;;5.13;;
20986;SDS011;10652;50.306;8.570;2023-02-25T04:42:54;14.00;;;4.60;;
20986;SDS011;10652;50.306;8.570;2023-02-25T04:46:56;11.10;;;4.95;;
20986;SDS011;10652;50.306;8.570;2023-02-25T04:51:02;9.18;;;4.20;;
20986;SDS011;10652;50.306;8.570;2023-02-25T04:55:04;11.65;;;4.60;;
20986;SDS011;10652;50.306;8.570;2023-02-25T04:59:06;12.13;;;4.40;;
20986;SDS011;10652;50.306;8.570;2023-02-25T05:03:12;12.02;;;4.63;;
20986;SDS011;10652;50.306;8.570;2023-02-25T05:07:14;10.52;;;4.72;;
20986;SDS011;10652;50.306;8.570;2023-02-25T05:11:16;10.63;;;4.78;;
20986;SDS011;10652;50.306;8.570;2023-02-25T05:15:19;12.32;;;4.53;;
20986;SDS011;10652;50.306;8.570;2023-02-25T05:19:22;13.25;;;4.57;;
20986;SDS011;10652;50.306;8.570;2023-02-25T05:23:25;11.60;;;3.92;;
20986;SDS011;10652;50.306;8.570;2023-02-25T05:27:27;8.95;;;4.07;;
20986;SDS011;10652;50.306;8.570;2023-02-25T05:31:29;13.35;;;4.63;;
20986;SDS011;10652;50.306;8.570;2023-02-25T05:35:31;8.90;;;4.18;;
20986;SDS011;10652;50.306;8.570;2023-02-25T05:39:34;10.23;;;3.95;;
20986;SDS011;10652;50.306;8.570;2023-02-25T05:43:37;8.98;;;4.20;;
20986;SDS011;10652;50.306;8.570;2023-02-25T05:47:39;10.35;;;4.20;;
20986;SDS011;10652;50.306;8.570;2023-02-25T05:51:41;14.02;;;5.75;;
20986;SDS011;10652;50.306;8.570;2023-02-25T05:55:44;7.78;;;4.32;;
20986;SDS011;10652;50.306;8.570;2023-02-25T05:59:46;13.07;;;6.00;;
20986;SDS011;10652;50.306;8.570;2023-02-25T06:03:49;16.92;;;7.35;;
20986;SDS011;10652;50.306;8.570;2023-02-25T06:07:52;15.05;;;5.78;;
20986;SDS011;10652;50.306;8.570;2023-02-25T06:11:54;10.45;;;4.90;;
20986;SDS011;10652;50.306;8.570;2023-02-25T06:15:56;9.10;;;4.45;;
20986;SDS011;10652;50.306;8.570;2023-02-25T06:19:58;10.18;;;4.70;;
20986;SDS011;10652;50.306;8.570;2023-02-25T06:24:02;10.75;;;5.32;;
20986;SDS011;10652;50.306;8.570;2023-02-25T06:28:06;11.00;;;5.50;;
20986;SDS011;10652;50.306;8.570;2023-02-25T06:32:08;13.23;;;4.72;;
20986;SDS011;10652;50.306;8.570;2023-02-25T06:36:14;10.25;;;5.22;;
20986;SDS011;10652;50.306;8.570;2023-02-25T06:40:17;12.23;;;4.65;;
20986;SDS011;10652;50.306;8.570;2023-02-25T06:44:20;12.85;;;5.20;;
20986;SDS011;10652;50.306;8.570;2023-02-25T06:48:22;13.32;;;4.93;;
20986;SDS011;10652;50.306;8.570;2023-02-25T06:52:24;12.98;;;5.38;;
20986;SDS011;10652;50.306;8.570;2023-02-25T06:56:26;10.57;;;5.50;;
20986;SDS011;10652;50.306;8.570;2023-02-25T07:00:29;12.18;;;4.88;;
20986;SDS011;10652;50.306;8.570;2023-02-25T07:04:32;11.82;;;5.20;;
20986;SDS011;10652;50.306;8.570;2023-02-25T07:08:34;12.73;;;5.18;;
20986;SDS011;10652;50.306;8.570;2023-02-25T07:12:36;13.77;;;5.90;;
20986;SDS011;10652;50.306;8.570;2023-02-25T07:16:38;11.02;;;5.25;;
20986;SDS011;10652;50.306;8.570;2023-02-25T07:20:40;14.23;;;5.93;;
20986;SDS011;10652;50.306;8.570;2023-02-25T07:24:43;11.73;;;5.28;;
20986;SDS011;10652;50.306;8.570;2023-02-25T07:28:46;11.82;;;5.70;;
20986;SDS011;10652;50.306;8.570;2023-02-25T07:32:51;12.90;;;5.85;;
20986;SDS011;10652;50.306;8.570;2023-02-25T07:36:53;11.35;;;6.05;;
20986;SDS011;10652;50.306;8.570;2023-02-25T07:40:55;14.60;;;5.97;;
20986;SDS011;10652;50.306;8.570;2023-02-25T07:44:57;12.23;;;6.40;;
20986;SDS011;10652;50.306;8.570;2023-02-25T07:49:02;15.30;;;7.05;;
20986;SDS011;10652;50.306;8.570;2023-02-25T07:53:04;14.65;;;6.93;;
20986;SDS011;10652;50.306;8.570;2023-02-25T07:57:06;15.13;;;6.40;;
20986;SDS011;10652;50.306;8.570;2023-02-25T08:01:09;16.10;;;7.68;;
20986;SDS011;10652;50.306;8.570;2023-02-25T08:05:19;13.88;;;7.00;;
20986;SDS011;10652;50.306;8.570;2023-02-25T08:09:23;11.05;;;5.88;;
20986;SDS011;10652;50.306;8.570;2023-02-25T08:13:26;12.35;;;6.10;;
20986;SDS011;10652;50.306;8.570;2023-02-25T08:17:28;15.50;;;6.63;;
20986;SDS011;10652;50.306;8.570;2023-02-25T08:21:33;14.32;;;6.22;;
20986;SDS011;10652;50.306;8.570;2023-02-25T08:25:35;16.67;;;7.15;;
20986;SDS011;10652;50.306;8.570;2023-02-25T08:29:37;14.38;;;6.45;;
20986;SDS011;10652;50.306;8.570;2023-02-25T08:33:40;13.27;;;6.75;;
20986;SDS011;10652;50.306;8.570;2023-02-25T08:37:45;12.40;;;6.20;;
20986;SDS011;10652;50.306;8.570;2023-02-25T08:41:47;19.63;;;8.80;;
20986;SDS011;10652;50.306;8.570;2023-02-25T08:45:49;13.88;;;6.80;;
20986;SDS011;10652;50.306;8.570;2023-02-25T08:49:52;15.02;;;6.88;;
20986;SDS011;10652;50.306;8.570;2023-02-25T08:53:54;18.65;;;6.00;;
20986;SDS011;10652;50.306;8.570;2023-02-25T08:57:56;14.75;;;7.05;;
20986;SDS011;10652;50.306;8.570;2023-02-25T09:01:58;13.00;;;7.05;;
20986;SDS011;10652;50.306;8.570;2023-02-25T09:06:00;14.40;;;6.10;;
20986;SDS011;10652;50.306;8.570;2023-02-25T09:10:03;13.70;;;5.82;;
20986;SDS011;10652;50.306;8.570;2023-02-25T09:14:10;15.45;;;6.55;;
20986;SDS011;10652;50.306;8.570;2023-02-25T09:18:13;16.40;;;6.70;;
20986;SDS011;10652;50.306;8.570;2023-02-25T09:22:15;14.98;;;6.60;;
20986;SDS011;10652;50.306;8.570;2023-02-25T09:26:17;13.88;;;5.57;;
20986;SDS011;10652;50.306;8.570;2023-02-25T09:30:20;12.07;;;5.82;;
20986;SDS011;10652;50.306;8.570;2023-02-25T09:34:22;13.73;;;5.20;;
20986;SDS011;10652;50.306;8.570;2023-02-25T09:38:24;13.85;;;7.45;;
20986;SDS011;10652;50.306;8.570;2023-02-25T09:42:30;12.90;;;6.38;;
20986;SDS011;10652;50.306;8.570;2023-02-25T09:46:50;16.05;;;6.00;;
20986;SDS011;10652;50.306;8.570;2023-02-25T09:50:59;13.57;;;5.88;;
20986;SDS011;10652;50.306;8.570;2023-02-25T09:55:17;15.48;;;5.85;;
20986;SDS011;10652;50.306;8.570;2023-02-25T09:59:22;14.95;;;5.93;;
20986;SDS011;10652;50.306;8.570;2023-02-25T10:12:34;11.38;;;4.43;;
20986;SDS011;10652;50.306;8.570;2023-02-25T10:16:58;11.27;;;4.07;;
20986;SDS011;10652;50.306;8.570;2023-02-25T10:21:14;13.00;;;4.53;;
20986;SDS011;10652;50.306;8.570;2023-02-25T10:25:21;8.23;;;3.65;;
20986;SDS011;10652;50.306;8.570;2023-02-25T10:29:34;11.30;;;4.22;;
20986;SDS011;10652;50.306;8.570;2023-02-25T10:33:47;9.38;;;4.57;;
20986;SDS011;10652;50.306;8.570;2023-02-25T10:37:52;11.98;;;4.72;;
20986;SDS011;10652;50.306;8.570;2023-02-25T10:41:54;10.25;;;4.40;;
20986;SDS011;10652;50.306;8.570;2023-02-25T10:46:02;12.82;;;5.05;;
20986;SDS011;10652;50.306;8.570;2023-02-25T10:50:24;11.00;;;5.47;;
20986;SDS011;10652;50.306;8.570;2023-02-25T10:54:49;12.98;;;4.68;;
20986;SDS011;10652;50.306;8.570;2023-02-25T10:59:01;51.83;;;21.60;;
20986;SDS011;10652;50.306;8.570;2023-02-25T11:03:06;12.70;;;5.65;;
20986;SDS011;10652;50.306;8.570;2023-02-25T11:11:36;2.80;;;1.27;;
20986;SDS011;10652;50.306;8.570;2023-02-25T11:15:39;3.13;;;1.02;;
20986;SDS011;10652;50.306;8.570;2023-02-25T11:19:51;3.83;;;1.65;;
20986;SDS011;10652;50.306;8.570;2023-02-25T11:24:01;2.38;;;1.20;;
20986;SDS011;10652;50.306;8.570;2023-02-25T11:28:07;1.95;;;1.20;;
20986;SDS011;10652;50.306;8.570;2023-02-25T11:32:29;1.92;;;1.00;;
20986;SDS011;10652;50.306;8.570;2023-02-25T11:36:36;1.40;;;0.80;;
20986;SDS011;10652;50.306;8.570;2023-02-25T11:40:40;2.25;;;0.82;;
20986;SDS011;10652;50.306;8.570;2023-02-25T11:44:44;2.42;;;1.20;;
20986;SDS011;10652;50.306;8.570;2023-02-25T11:48:52;2.08;;;1.10;;
20986;SDS011;10652;50.306;8.570;2023-02-25T11:53:23;1.73;;;1.23;;
20986;SDS011;10652;50.306;8.570;2023-02-25T12:02:18;3.10;;;1.67;;
20986;SDS011;10652;50.306;8.570;2023-02-25T12:15:41;1.88;;;1.00;;
20986;SDS011;10652;50.306;8.570;2023-02-25T12:33:21;2.88;;;0.80;;
20986;SDS011;10652;50.306;8.570;2023-02-25T12:51:28;3.97;;;0.95;;
20986;SDS011;10652;50.306;8.570;2023-02-25T13:04:56;3.20;;;1.27;;
20986;SDS011;10652;50.306;8.570;2023-02-25T13:13:48;3.00;;;1.75;;
20986;SDS011;10652;50.306;8.570;2023-02-25T13:31:51;1.50;;;0.60;;
20986;SDS011;10652;50.306;8.570;2023-02-25T13:36:24;1.55;;;0.80;;
20986;SDS011;10652;50.306;8.570;2023-02-25T13:40:38;2.08;;;0.80;;
20986;SDS011;10652;50.306;8.570;2023-02-25T13:49:36;4.65;;;0.60;;
20986;SDS011;10652;50.306;8.570;2023-02-25T14:08:01;5.28;;;0.75;;
20986;SDS011;10652;50.306;8.570;2023-02-25T14:17:20;3.15;;;1.33;;
20986;SDS011;10652;50.306;8.570;2023-02-25T14:35:54;5.75;;;2.10;;
20986;SDS011;10652;50.306;8.570;2023-02-25T14:44:36;5.25;;;0.80;;
20986;SDS011;10652;50.306;8.570;2023-02-25T14:48:57;3.85;;;1.30;;
20986;SDS011;10652;50.306;8.570;2023-02-25T15:06:35;5.38;;;1.17;;
20986;SDS011;10652;50.306;8.570;2023-02-25T15:10:51;6.00;;;1.50;;
20986;SDS011;10652;50.306;8.570;2023-02-25T15:15:27;17.33;;;8.07;;
20986;SDS011;10652;50.306;8.570;2023-02-25T15:19:58;6.20;;;1.52;;
20986;SDS011;10652;50.306;8.570;2023-02-25T15:37:32;4.90;;;1.08;;
20986;SDS011;10652;50.306;8.570;2023-02-25T15:41:36;2.97;;;1.00;;
20986;SDS011;10652;50.306;8.570;2023-02-25T15:50:07;2.00;;;0.73;;
20986;SDS011;10652;50.306;8.570;2023-02-25T16:02:32;3.35;;;0.82;;
20986;SDS011;10652;50.306;8.570;2023-02-25T16:06:39;2.70;;;0.85;;
20986;SDS011;10652;50.306;8.570;2023-02-25T16:10:43;4.00;;;0.95;;
20986;SDS011;10652;50.306;8.570;2023-02-25T16:14:48;3.20;;;0.77;;
20986;SDS011;10652;50.306;8.570;2023-02-25T16:18:52;2.60;;;0.90;;
20986;SDS011;10652;50.306;8.570;2023-02-25T16:22:58;2.65;;;0.80;;
20986;SDS011;10652;50.306;8.570;2023-02-25T16:35:21;4.68;;;0.75;;
20986;SDS011;10652;50.306;8.570;2023-02-25T16:39:35;3.00;;;0.93;;
20986;SDS011;10652;50.306;8.570;2023-02-25T16:43:39;2.42;;;0.75;;
20986;SDS011;10652;50.306;8.570;2023-02-25T16:47:46;1.85;;;0.90;;
20986;SDS011;10652;50.306;8.570;2023-02-25T16:51:56;3.60;;;1.00;;
20986;SDS011;10652;50.306;8.570;2023-02-25T16:55:59;3.47;;;0.68;;
20986;SDS011;10652;50.306;8.570;2023-02-25T17:00:19;2.72;;;0.63;;
20986;SDS011;10652;50.306;8.570;2023-02-25T17:04:34;4.20;;;0.77;;
20986;SDS011;10652;50.306;8.570;2023-02-25T17:08:37;2.63;;;0.90;;
20986;SDS011;10652;50.306;8.570;2023-02-25T17:12:48;1.73;;;0.63;;
20986;SDS011;10652;50.306;8.570;2023-02-25T17:16:50;2.67;;;1.20;;
20986;SDS011;10652;50.306;8.570;2023-02-25T17:20:58;1.50;;;0.70;;
20986;SDS011;10652;50.306;8.570;2023-02-25T17:25:04;2.58;;;0.77;;
20986;SDS011;10652;50.306;8.570;2023-02-25T17:29:13;2.38;;;0.70;;
20986;SDS011;10652;50.306;8.570;2023-02-25T17:33:18;2.60;;;1.10;;
20986;SDS011;10652;50.306;8.570;2023-02-25T17:37:26;2.20;;;1.10;;
20986;SDS011;10652;50.306;8.570;2023-02-25T17:41:30;2.08;;;1.00;;
20986;SDS011;10652;50.306;8.570;2023-02-25T17:45:40;1.80;;;0.98;;
20986;SDS011;10652;50.306;8.570;2023-02-25T17:49:45;1.95;;;0.70;;
20986;SDS011;10652;50.306;8.570;2023-02-25T17:53:54;2.67;;;0.70;;
20986;SDS011;10652;50.306;8.570;2023-02-25T17:57:59;2.33;;;0.60;;
20986;SDS011;10652;50.306;8.570;2023-02-25T18:02:03;1.67;;;0.70;;
20986;SDS011;10652;50.306;8.570;2023-02-25T18:06:32;2.05;;;0.70;;
20986;SDS011;10652;50.306;8.570;2023-02-25T18:10:41;2.13;;;1.08;;
20986;SDS011;10652;50.306;8.570;2023-02-25T18:14:45;2.83;;;0.60;;
20986;SDS011;10652;50.306;8.570;2023-02-25T18:18:54;1.42;;;0.70;;
20986;SDS011;10652;50.306;8.570;2023-02-25T18:23:01;3.05;;;0.93;;
20986;SDS011;10652;50.306;8.570;2023-02-25T18:27:18;7.82;;;2.80;;
20986;SDS011;10652;50.306;8.570;2023-02-25T18:31:30;3.47;;;1.60;;
20986;SDS011;10652;50.306;8.570;2023-02-25T18:35:33;2.60;;;1.50;;
20986;SDS011;10652;50.306;8.570;2023-02-25T18:39:35;1.63;;;1.00;;
20986;SDS011;10652;50.306;8.570;2023-02-25T18:43:37;2.22;;;1.25;;
20986;SDS011;10652;50.306;8.570;2023-02-25T18:47:42;6.45;;;1.10;;
20986;SDS011;10652;50.306;8.570;2023-02-25T18:51:45;2.83;;;0.90;;
20986;SDS011;10652;50.306;8.570;2023-02-25T18:55:50;2.60;;;0.88;;
20986;SDS011;10652;50.306;8.570;2023-02-25T18:59:53;2.97;;;1.08;;
20986;SDS011;10652;50.306;8.570;2023-02-25T19:03:55;2.30;;;1.27;;
20986;SDS011;10652;50.306;8.570;2023-02-25T19:08:00;2.58;;;1.13;;
20986;SDS011;10652;50.306;8.570;2023-02-25T19:12:03;2.53;;;1.00;;
20986;SDS011;10652;50.306;8.570;2023-02-25T19:16:05;3.58;;;1.13;;
20986;SDS011;10652;50.306;8.570;2023-02-25T19:20:09;1.17;;;0.80;;
20986;SDS011;10652;50.306;8.570;2023-02-25T19:24:13;2.45;;;0.90;;
20986;SDS011;10652;50.306;8.570;2023-02-25T19:28:15;2.25;;;0.90;;
20986;SDS011;10652;50.306;8.570;2023-02-25T19:32:18;3.40;;;1.98;;
20986;SDS011;10652;50.306;8.570;2023-02-25T19:36:21;1.83;;;1.10;;
20986;SDS011;10652;50.306;8.570;2023-02-25T19:40:24;2.67;;;0.88;;
20986;SDS011;10652;50.306;8.570;2023-02-25T19:44:26;1.83;;;1.02;;
20986;SDS011;10652;50.306;8.570;2023-02-25T19:48:28;4.85;;;1.27;;
20986;SDS011;10652;50.306;8.570;2023-02-25T19:52:30;3.22;;;1.42;;
20986;SDS011;10652;50.306;8.570;2023-02-25T19:56:34;1.90;;;1.00;;
20986;SDS011;10652;50.306;8.570;2023-02-25T20:00:36;4.15;;;1.10;;
20986;SDS011;10652;50.306;8.570;2023-02-25T20:04:39;3.13;;;1.10;;
20986;SDS011;10652;50.306;8.570;2023-02-25T20:08:41;4.68;;;1.60;;
20986;SDS011;10652;50.306;8.570;2023-02-25T20:12:44;1.80;;;0.80;;
20986;SDS011;10652;50.306;8.570;2023-02-25T20:16:47;2.88;;;1.02;;
20986;SDS011;10652;50.306;8.570;2023-02-25T20:20:49;5.72;;;0.90;;
20986;SDS011;10652;50.306;8.570;2023-02-25T20:24:51;2.80;;;1.00;;
20986;SDS011;10652;50.306;8.570;2023-02-25T20:28:53;4.78;;;1.20;;
20986;SDS011;10652;50.306;8.570;2023-02-25T20:32:55;2.55;;;1.33;;
20986;SDS011;10652;50.306;8.570;2023-02-25T20:41:07;4.50;;;1.85;;
20986;SDS011;10652;50.306;8.570;2023-02-25T20:45:16;2.67;;;1.00;;
20986;SDS011;10652;50.306;8.570;2023-02-25T20:49:19;4.20;;;1.23;;
20986;SDS011;10652;50.306;8.570;2023-02-25T20:53:21;2.63;;;1.20;;
20986;SDS011;10652;50.306;8.570;2023-02-25T20:57:25;2.70;;;1.58;;
20986;SDS011;10652;50.306;8.570;2023-02-25T21:01:27;4.13;;;1.25;;
20986;SDS011;10652;50.306;8.570;2023-02-25T21:05:30;2.33;;;1.20;;
20986;SDS011;10652;50.306;8.570;2023-02-25T21:09:33;4.70;;;1.20;;
20986;SDS011;10652;50.306;8.570;2023-02-25T21:13:35;5.43;;;2.25;;
20986;SDS011;10652;50.306;8.570;2023-02-25T21:17:37;4.38;;;2.13;;
20986;SDS011;10652;50.306;8.570;2023-02-25T21:21:39;14.00;;;9.20;;
20986;SDS011;10652;50.306;8.570;2023-02-25T21:25:41;4.90;;;1.58;;
20986;SDS011;10652;50.306;8.570;2023-02-25T21:29:43;2.63;;;1.00;;
20986;SDS011;10652;50.306;8.570;2023-02-25T21:33:45;3.97;;;1.33;;
20986;SDS011;10652;50.306;8.570;2023-02-25T21:37:47;1.42;;;1.10;;
20986;SDS011;10652;50.306;8.570;2023-02-25T21:41:49;2.40;;;1.02;;
20986;SDS011;10652;50.306;8.570;2023-02-25T21:45:55;2.67;;;1.20;;
20986;SDS011;10652;50.306;8.570;2023-02-25T21:49:59;2.10;;;1.33;;
20986;SDS011;10652;50.306;8.570;2023-02-25T21:54:01;2.55;;;1.33;;
20986;SDS011;10652;50.306;8.570;2023-02-25T21:58:03;3.15;;;1.10;;
20986;SDS011;10652;50.306;8.570;2023-02-25T22:02:05;3.72;;;1.27;;
20986;SDS011;10652;50.306;8.570;2023-02-25T22:06:07;3.35;;;1.20;;
20986;SDS011;10652;50.306;8.570;2023-02-25T22:10:10;2.80;;;1.00;;
20986;SDS011;10652;50.306;8.570;2023-02-25T22:14:13;2.83;;;1.23;;
20986;SDS011;10652;50.306;8.570;2023-02-25T22:18:15;2.60;;;1.40;;
20986;SDS011;10652;50.306;8.570;2023-02-25T22:22:17;4.85;;;1.50;;
20986;SDS011;10652;50.306;8.570;2023-02-25T22:26:20;4.10;;;1.45;;
20986;SDS011;10652;50.306;8.570;2023-02-25T22:30:24;1.98;;;1.40;;
20986;SDS011;10652;50.306;8.570;2023-02-25T22:34:26;3.70;;;1.15;;
20986;SDS011;10652;50.306;8.570;2023-02-25T22:38:29;3.58;;;1.80;;
20986;SDS011;10652;50.306;8.570;2023-02-25T22:42:32;9.85;;;4.18;;
20986;SDS011;10652;50.306;8.570;2023-02-25T22:46:36;3.35;;;1.88;;
20986;SDS011;10652;50.306;8.570;2023-02-25T22:50:44;5.35;;;1.70;;
20986;SDS011;10652;50.306;8.570;2023-02-25T22:54:47;5.18;;;1.77;;
20986;SDS011;10652;50.306;8.570;2023-02-25T22:58:49;3.72;;;1.60;;
20986;SDS011;10652;50.306;8.570;2023-02-25T23:02:52;6.50;;;1.88;;
20986;SDS011;10652;50.306;8.570;2023-02-25T23:06:54;3.25;;;2.08;;
20986;SDS011;10652;50.306;8.570;2023-02-25T23:11:06;5.38;;;1.80;;
20986;SDS011;10652;50.306;8.570;2023-02-25T23:15:12;5.97;;;3.10;;
20986;SDS011;10652;50.306;8.570;2023-02-25T23:19:17;10.10;;;4.97;;
20986;SDS011;10652;50.306;8.570;2023-02-25T23:23:20;6.40;;;3.45;;
20986;SDS011;10652;50.306;8.570;2023-02-25T23:27:22;7.97;;;4.32;;
20986;SDS011;10652;50.306;8.570;2023-02-25T23:31:25;7.45;;;4.15;;
20986;SDS011;10652;50.306;8.570;2023-02-25T23:35:29;13.82;;;8.48;;
20986;SDS011;10652;50.306;8.570;2023-02-25T23:39:31;6.10;;;2.42;;
20986;SDS011;10652;50.306;8.570;2023-02-25T23:43:33;5.68;;;3.67;;
20986;SDS011;10652;50.306;8.570;2023-02-25T23:47:36;10.43;;;5.80;;
20986;SDS011;10652;50.306;8.570;2023-02-25T23:51:43;6.32;;;2.90;;
20986;SDS011;10652;50.306;8.570;2023-02-25T23:55:46;8.00;;;4.20;;
20986;SDS011;10652;50.306;8.570;2023-02-25T23:59:48;7.05;;;3.03;;
